createdAt,value
2023-09-17T00:00:36.337Z,28.63
2023-09-17T00:01:36.416Z,28.62
2023-09-17T00:02:36.368Z,28.62
2023-09-17T00:03:36.362Z,28.66
2023-09-17T00:04:36.313Z,28.72
2023-09-17T00:05:36.360Z,28.70
2023-09-17T00:06:57.281Z,28.63
2023-09-17T00:07:36.269Z,28.23
2023-09-17T00:08:36.245Z,28.22
2023-09-17T00:09:36.229Z,28.21
2023-09-17T00:10:36.258Z,28.22
2023-09-17T00:11:36.239Z,28.16
2023-09-17T00:12:36.267Z,28.22
2023-09-17T00:13:36.170Z,28.26
2023-09-17T00:14:36.164Z,28.32
2023-09-17T00:15:36.206Z,28.40
2023-09-17T00:16:36.296Z,28.43
2023-09-17T00:17:36.168Z,28.50
2023-09-17T00:18:36.131Z,28.59
2023-09-17T00:19:36.129Z,28.68
2023-09-17T00:20:36.096Z,28.75
2023-09-17T00:21:36.047Z,28.88
2023-09-17T00:22:36.136Z,29.00
2023-09-17T00:23:36.083Z,29.04
2023-09-17T00:24:36.047Z,29.10
2023-09-17T00:25:36.113Z,29.16
2023-09-17T00:26:36.095Z,29.10
2023-09-17T00:27:35.996Z,28.78
2023-09-17T00:28:36.001Z,28.60
2023-09-17T00:29:35.991Z,28.66
2023-09-17T00:30:36.047Z,28.48
2023-09-17T00:31:35.968Z,28.58
2023-09-17T00:32:36.025Z,28.70
2023-09-17T00:33:35.918Z,28.53
2023-09-17T00:34:35.959Z,28.47
2023-09-17T00:35:35.911Z,28.63
2023-09-17T00:36:35.875Z,28.68
2023-09-17T00:37:35.842Z,28.78
2023-09-17T00:38:35.859Z,28.75
2023-09-17T00:39:35.824Z,28.78
2023-09-17T00:40:35.938Z,28.82
2023-09-17T00:41:35.881Z,28.90
2023-09-17T00:42:35.855Z,28.66
2023-09-17T00:43:35.842Z,28.59
2023-09-17T00:44:35.768Z,28.60
2023-09-17T00:45:35.853Z,28.65
2023-09-17T00:46:35.874Z,28.73
2023-09-17T00:47:35.835Z,28.80
2023-09-17T00:48:35.713Z,28.62
2023-09-17T00:49:35.754Z,28.43
2023-09-17T00:50:36.424Z,28.29
2023-09-17T00:51:35.680Z,28.29
2023-09-17T00:52:35.688Z,28.29
2023-09-17T00:53:35.660Z,28.43
2023-09-17T00:54:35.657Z,28.51
2023-09-17T00:55:35.638Z,28.58
2023-09-17T00:56:35.642Z,28.69
2023-09-17T00:57:35.573Z,28.88
2023-09-17T00:58:35.611Z,28.84
2023-09-17T00:59:35.591Z,28.84
2023-09-17T01:00:35.606Z,28.88
2023-09-17T01:01:35.644Z,28.87
2023-09-17T01:02:35.700Z,28.82
2023-09-17T01:03:35.658Z,28.81
2023-09-17T01:04:35.554Z,28.70
2023-09-17T01:05:35.514Z,28.65
2023-09-17T01:06:35.504Z,28.68
2023-09-17T01:07:35.449Z,28.73
2023-09-17T01:08:35.547Z,28.75
2023-09-17T01:09:35.439Z,28.69
2023-09-17T01:10:35.473Z,28.62
2023-09-17T01:11:35.483Z,28.36
2023-09-17T01:12:35.392Z,28.21
2023-09-17T01:13:35.425Z,28.04
2023-09-17T01:14:35.399Z,28.10
2023-09-17T01:15:35.393Z,28.16
2023-09-17T01:16:35.499Z,28.32
2023-09-17T01:17:35.364Z,28.51
2023-09-17T01:18:35.320Z,28.62
2023-09-17T01:19:35.399Z,28.63
2023-09-17T01:20:35.304Z,28.60
2023-09-17T01:21:35.326Z,28.68
2023-09-17T01:22:35.349Z,28.66
2023-09-17T01:23:35.313Z,28.65
2023-09-17T01:24:35.271Z,28.82
2023-09-17T01:25:35.227Z,28.82
2023-09-17T01:26:35.229Z,28.85
2023-09-17T01:27:35.284Z,28.78
2023-09-17T01:28:35.322Z,28.81
2023-09-17T01:29:35.208Z,28.77
2023-09-17T01:30:35.194Z,28.80
2023-09-17T01:31:35.152Z,28.85
2023-09-17T01:32:35.204Z,28.70
2023-09-17T01:33:35.197Z,28.81
2023-09-17T01:34:35.145Z,28.68
2023-09-17T01:35:35.102Z,28.50
2023-09-17T01:36:35.112Z,28.48
2023-09-17T01:37:35.107Z,28.51
2023-09-17T01:38:35.098Z,28.56
2023-09-17T01:39:35.080Z,28.66
2023-09-17T01:40:35.058Z,28.65
2023-09-17T01:41:35.088Z,28.66
2023-09-17T01:42:35.055Z,28.63
2023-09-17T01:43:35.025Z,28.72
2023-09-17T01:44:34.971Z,28.54
2023-09-17T01:45:34.968Z,28.35
2023-09-17T01:46:35.024Z,28.36
2023-09-17T01:47:34.976Z,28.47
2023-09-17T01:48:35.012Z,28.54
2023-09-17T01:49:34.992Z,28.51
2023-09-17T01:50:34.906Z,28.32
2023-09-17T01:51:34.863Z,28.19
2023-09-17T01:52:34.919Z,28.07
2023-09-17T01:53:34.868Z,28.14
2023-09-17T01:54:34.830Z,28.14
2023-09-17T01:55:34.885Z,28.13
2023-09-17T01:56:34.821Z,28.14
2023-09-17T01:57:34.767Z,28.17
2023-09-17T01:58:34.830Z,28.23
2023-09-17T01:59:34.840Z,28.28
2023-09-17T02:00:34.837Z,28.29
2023-09-17T02:01:34.821Z,28.19
2023-09-17T02:02:34.835Z,28.21
2023-09-17T02:03:34.768Z,28.23
2023-09-17T02:04:34.772Z,28.26
2023-09-17T02:05:34.748Z,28.23
2023-09-17T02:06:34.840Z,28.10
2023-09-17T02:07:34.664Z,28.01
2023-09-17T02:08:34.664Z,27.86
2023-09-17T02:09:34.796Z,27.79
2023-09-17T02:10:34.684Z,27.70
2023-09-17T02:11:34.664Z,27.61
2023-09-17T02:12:34.600Z,27.58
2023-09-17T02:13:34.588Z,27.67
2023-09-17T02:14:34.577Z,27.80
2023-09-17T02:15:34.614Z,27.88
2023-09-17T02:16:34.607Z,27.88
2023-09-17T02:17:34.666Z,27.84
2023-09-17T02:18:34.515Z,27.85
2023-09-17T02:19:34.481Z,27.71
2023-09-17T02:20:34.531Z,27.59
2023-09-17T02:21:34.452Z,27.53
2023-09-17T02:22:34.503Z,27.61
2023-09-17T02:23:34.452Z,27.66
2023-09-17T02:24:34.451Z,27.79
2023-09-17T02:25:34.477Z,27.89
2023-09-17T02:26:34.446Z,27.73
2023-09-17T02:27:34.394Z,27.33
2023-09-17T02:28:34.446Z,26.99
2023-09-17T02:29:34.464Z,26.80
2023-09-17T02:30:34.387Z,26.73
2023-09-17T02:31:34.448Z,26.91
2023-09-17T02:32:34.417Z,26.92
2023-09-17T02:33:34.295Z,26.89
2023-09-17T02:34:34.446Z,26.91
2023-09-17T02:35:34.334Z,26.80
2023-09-17T02:36:34.332Z,26.68
2023-09-17T02:37:34.285Z,26.76
2023-09-17T02:38:34.320Z,26.92
2023-09-17T02:39:34.212Z,27.01
2023-09-17T02:40:34.294Z,27.19
2023-09-17T02:41:34.226Z,27.32
2023-09-17T02:42:34.188Z,27.41
2023-09-17T02:43:34.153Z,27.51
2023-09-17T02:44:34.174Z,27.57
2023-09-17T02:45:34.159Z,27.31
2023-09-17T02:46:34.202Z,27.06
2023-09-17T02:47:34.200Z,26.92
2023-09-17T02:48:34.155Z,26.94
2023-09-17T02:49:34.105Z,26.91
2023-09-17T02:50:34.117Z,26.89
2023-09-17T02:51:34.048Z,26.77
2023-09-17T02:52:34.081Z,26.72
2023-09-17T02:53:34.080Z,26.80
2023-09-17T02:54:34.125Z,27.04
2023-09-17T02:55:34.057Z,27.28
2023-09-17T02:56:34.010Z,27.59
2023-09-17T02:57:34.035Z,27.80
2023-09-17T02:58:33.979Z,27.76
2023-09-17T02:59:34.027Z,27.50
2023-09-17T03:00:33.993Z,27.41
2023-09-17T03:01:34.156Z,27.41
2023-09-17T03:02:33.983Z,27.54
2023-09-17T03:03:33.955Z,27.67
2023-09-17T03:04:33.931Z,27.80
2023-09-17T03:05:33.960Z,27.74
2023-09-17T03:06:33.950Z,27.62
2023-09-17T03:07:33.929Z,27.62
2023-09-17T03:08:33.896Z,27.31
2023-09-17T03:09:33.830Z,27.39
2023-09-17T03:10:33.951Z,27.20
2023-09-17T03:11:34.873Z,27.20
2023-09-17T03:12:33.825Z,27.23
2023-09-17T03:13:33.835Z,27.28
2023-09-17T03:14:33.792Z,27.28
2023-09-17T03:15:33.792Z,27.31
2023-09-17T03:16:33.848Z,27.43
2023-09-17T03:17:33.890Z,27.57
2023-09-17T03:18:33.717Z,27.47
2023-09-17T03:19:33.817Z,27.35
2023-09-17T03:20:33.700Z,27.28
2023-09-17T03:21:33.711Z,27.32
2023-09-17T03:22:33.689Z,27.35
2023-09-17T03:23:33.700Z,27.43
2023-09-17T03:24:33.643Z,27.53
2023-09-17T03:25:33.653Z,27.67
2023-09-17T03:26:33.736Z,27.80
2023-09-17T03:27:33.674Z,27.96
2023-09-17T03:28:33.654Z,27.99
2023-09-17T03:29:33.661Z,27.99
2023-09-17T03:30:33.523Z,27.96
2023-09-17T03:31:33.672Z,27.95
2023-09-17T03:32:33.598Z,27.94
2023-09-17T03:33:33.566Z,27.98
2023-09-17T03:34:33.503Z,28.03
2023-09-17T03:35:33.523Z,28.03
2023-09-17T03:36:33.434Z,27.99
2023-09-17T03:37:33.481Z,27.96
2023-09-17T03:38:33.414Z,27.95
2023-09-17T03:39:33.459Z,27.96
2023-09-17T03:40:33.533Z,27.94
2023-09-17T03:41:33.511Z,27.76
2023-09-17T03:42:33.370Z,27.64
2023-09-17T03:43:33.398Z,27.61
2023-09-17T03:44:33.358Z,27.64
2023-09-17T03:45:33.396Z,27.58
2023-09-17T03:46:33.416Z,27.38
2023-09-17T03:47:33.409Z,27.10
2023-09-17T03:48:33.354Z,26.89
2023-09-17T03:49:33.365Z,26.77
2023-09-17T03:50:33.297Z,26.84
2023-09-17T03:51:33.268Z,26.89
2023-09-17T03:52:33.300Z,26.86
2023-09-17T03:53:33.287Z,26.76
2023-09-17T03:54:33.226Z,26.76
2023-09-17T03:55:33.298Z,26.64
2023-09-17T03:56:33.266Z,26.69
2023-09-17T03:57:33.199Z,26.77
2023-09-17T03:58:33.197Z,26.86
2023-09-17T03:59:33.213Z,26.91
2023-09-17T04:00:33.152Z,26.94
2023-09-17T04:01:33.233Z,26.84
2023-09-17T04:02:33.236Z,26.73
2023-09-17T04:03:33.147Z,26.80
2023-09-17T04:04:33.194Z,26.83
2023-09-17T04:05:33.175Z,26.83
2023-09-17T04:06:33.151Z,26.86
2023-09-17T04:07:33.194Z,26.89
2023-09-17T04:08:33.318Z,26.81
2023-09-17T04:09:33.064Z,26.80
2023-09-17T04:10:33.035Z,26.65
2023-09-17T04:11:33.056Z,26.59
2023-09-17T04:12:32.968Z,26.46
2023-09-17T04:13:33.022Z,26.49
2023-09-17T04:14:32.965Z,26.55
2023-09-17T04:15:32.967Z,26.61
2023-09-17T04:16:33.005Z,26.79
2023-09-17T04:17:32.977Z,26.74
2023-09-17T04:18:32.885Z,26.73
2023-09-17T04:19:33.035Z,26.77
2023-09-17T04:20:32.875Z,26.87
2023-09-17T04:21:33.291Z,26.98
2023-09-17T04:22:32.881Z,27.04
2023-09-17T04:23:32.988Z,27.02
2023-09-17T04:24:32.820Z,26.94
2023-09-17T04:25:32.911Z,26.57
2023-09-17T04:26:32.859Z,26.31
2023-09-17T04:27:32.860Z,26.57
2023-09-17T04:28:32.827Z,26.72
2023-09-17T04:29:32.849Z,26.81
2023-09-17T04:30:32.750Z,26.83
2023-09-17T04:31:32.843Z,27.01
2023-09-17T04:32:32.796Z,27.17
2023-09-17T04:33:32.742Z,27.29
2023-09-17T04:34:32.817Z,27.36
2023-09-17T04:35:32.678Z,27.36
2023-09-17T04:36:32.704Z,27.39
2023-09-17T04:37:32.769Z,27.38
2023-09-17T04:38:32.624Z,27.39
2023-09-17T04:39:32.657Z,27.35
2023-09-17T04:40:32.866Z,27.31
2023-09-17T04:41:32.635Z,27.23
2023-09-17T04:42:32.593Z,27.20
2023-09-17T04:43:32.640Z,27.04
2023-09-17T04:44:32.615Z,27.01
2023-09-17T04:45:32.688Z,26.99
2023-09-17T04:46:32.693Z,27.09
2023-09-17T04:47:32.539Z,27.11
2023-09-17T04:48:32.581Z,27.11
2023-09-17T04:49:32.588Z,27.06
2023-09-17T04:50:32.452Z,26.99
2023-09-17T04:51:32.483Z,26.92
2023-09-17T04:52:32.492Z,26.95
2023-09-17T04:53:32.443Z,26.96
2023-09-17T04:54:32.434Z,26.96
2023-09-17T04:55:32.486Z,26.98
2023-09-17T04:56:32.377Z,26.91
2023-09-17T04:57:32.381Z,26.92
2023-09-17T04:58:32.435Z,26.96
2023-09-17T04:59:32.374Z,27.01
2023-09-17T05:00:32.500Z,27.01
2023-09-17T05:01:32.475Z,27.01
2023-09-17T05:02:32.408Z,26.99
2023-09-17T05:03:32.477Z,26.99
2023-09-17T05:04:32.309Z,26.95
2023-09-17T05:05:32.319Z,26.81
2023-09-17T05:06:32.434Z,26.54
2023-09-17T05:07:32.690Z,26.29
2023-09-17T05:08:32.274Z,26.20
2023-09-17T05:09:32.442Z,26.21
2023-09-17T05:10:33.880Z,26.31
2023-09-17T05:11:32.264Z,26.39
2023-09-17T05:12:32.206Z,26.47
2023-09-17T05:13:32.198Z,26.54
2023-09-17T05:14:32.205Z,26.62
2023-09-17T05:15:32.239Z,26.65
2023-09-17T05:16:32.218Z,26.74
2023-09-17T05:17:32.254Z,26.81
2023-09-17T05:18:32.087Z,26.92
2023-09-17T05:19:32.148Z,26.96
2023-09-17T05:20:32.071Z,26.96
2023-09-17T05:21:32.048Z,26.94
2023-09-17T05:22:32.058Z,26.94
2023-09-17T05:23:32.042Z,26.91
2023-09-17T05:24:32.011Z,26.91
2023-09-17T05:25:32.058Z,26.91
2023-09-17T05:26:32.007Z,26.91
2023-09-17T05:27:32.075Z,26.86
2023-09-17T05:28:32.053Z,26.79
2023-09-17T05:29:32.027Z,26.73
2023-09-17T05:30:32.034Z,26.76
2023-09-17T05:31:32.065Z,26.86
2023-09-17T05:32:31.958Z,26.84
2023-09-17T05:33:31.941Z,26.89
2023-09-17T05:34:31.908Z,26.95
2023-09-17T05:35:31.873Z,26.98
2023-09-17T05:36:31.826Z,27.01
2023-09-17T05:37:31.856Z,26.99
2023-09-17T05:38:31.786Z,26.80
2023-09-17T05:39:31.835Z,26.81
2023-09-17T05:40:31.804Z,26.76
2023-09-17T05:41:31.833Z,26.59
2023-09-17T05:42:31.767Z,26.68
2023-09-17T05:43:31.817Z,26.62
2023-09-17T05:44:31.742Z,26.54
2023-09-17T05:45:31.805Z,26.47
2023-09-17T05:46:31.710Z,26.57
2023-09-17T05:47:31.719Z,26.59
2023-09-17T05:48:31.719Z,26.68
2023-09-17T05:49:31.713Z,26.83
2023-09-17T05:50:31.826Z,26.84
2023-09-17T05:51:31.667Z,26.96
2023-09-17T05:52:31.606Z,26.92
2023-09-17T05:53:31.636Z,27.02
2023-09-17T05:54:31.595Z,27.13
2023-09-17T05:55:31.639Z,27.19
2023-09-17T05:56:31.648Z,27.16
2023-09-17T05:57:31.571Z,26.95
2023-09-17T05:58:31.575Z,26.87
2023-09-17T05:59:32.592Z,26.81
2023-09-17T06:00:31.533Z,26.79
2023-09-17T06:01:31.551Z,26.91
2023-09-17T06:02:31.496Z,27.02
2023-09-17T06:03:31.664Z,27.16
2023-09-17T06:04:31.508Z,27.17
2023-09-17T06:06:40.828Z,26.39
2023-09-17T06:07:40.835Z,26.79
2023-09-17T06:08:40.817Z,26.99
2023-09-17T06:09:40.747Z,27.16
2023-09-17T06:10:40.799Z,27.36
2023-09-17T06:11:41.142Z,27.47
2023-09-17T06:12:40.866Z,27.59
2023-09-17T06:13:40.806Z,27.66
2023-09-17T06:14:40.755Z,27.70
2023-09-17T06:15:40.744Z,27.73
2023-09-17T06:16:58.380Z,27.77
2023-09-17T06:17:41.754Z,27.53
2023-09-17T06:18:40.688Z,27.66
2023-09-17T06:19:40.625Z,27.79
2023-09-17T06:20:40.649Z,27.84
2023-09-17T06:21:40.580Z,27.71
2023-09-17T06:22:40.641Z,27.76
2023-09-17T06:23:40.579Z,27.92
2023-09-17T06:24:40.572Z,28.09
2023-09-17T06:25:40.683Z,28.11
2023-09-17T06:26:40.568Z,28.21
2023-09-17T06:27:40.513Z,28.32
2023-09-17T06:28:40.590Z,28.01
2023-09-17T06:29:40.811Z,27.95
2023-09-17T06:30:40.503Z,27.86
2023-09-17T06:31:40.650Z,27.86
2023-09-17T06:32:40.465Z,27.89
2023-09-17T06:33:40.439Z,27.96
2023-09-17T06:34:40.502Z,28.06
2023-09-17T06:35:40.411Z,28.21
2023-09-17T06:36:40.415Z,28.29
2023-09-17T06:37:40.416Z,28.38
2023-09-17T06:38:40.369Z,28.48
2023-09-17T06:39:40.346Z,28.47
2023-09-17T06:40:40.509Z,28.35
2023-09-17T06:41:42.173Z,28.21
2023-09-17T06:42:40.331Z,28.26
2023-09-17T06:43:40.335Z,28.47
2023-09-17T06:44:40.396Z,28.53
2023-09-17T06:45:40.354Z,28.29
2023-09-17T06:46:40.339Z,28.23
2023-09-17T06:47:40.455Z,28.21
2023-09-17T06:48:40.258Z,28.11
2023-09-17T06:49:53.130Z,28.13
2023-09-17T06:50:40.207Z,28.19
2023-09-17T06:51:40.193Z,28.50
2023-09-17T06:52:40.210Z,28.59
2023-09-17T06:53:40.243Z,28.59
2023-09-17T06:54:40.188Z,28.72
2023-09-17T06:55:40.127Z,28.70
2023-09-17T06:56:40.137Z,28.75
2023-09-17T06:57:40.443Z,28.73
2023-09-17T06:58:40.125Z,28.82
2023-09-17T06:59:40.092Z,28.97
2023-09-17T07:00:40.204Z,29.06
2023-09-17T07:01:40.120Z,29.01
2023-09-17T07:02:40.154Z,29.00
2023-09-17T07:03:40.009Z,29.00
2023-09-17T07:04:40.149Z,28.93
2023-09-17T07:05:40.118Z,29.01
2023-09-17T07:06:40.039Z,29.00
2023-09-17T07:07:40.040Z,29.07
2023-09-17T07:08:40.032Z,29.22
2023-09-17T07:09:39.980Z,29.35
2023-09-17T07:10:40.157Z,29.35
2023-09-17T07:11:39.958Z,29.25
2023-09-17T07:12:40.011Z,29.16
2023-09-17T07:13:40.041Z,29.08
2023-09-17T07:14:39.944Z,29.22
2023-09-17T07:15:39.896Z,29.47
2023-09-17T07:16:40.062Z,29.72
2023-09-17T07:17:40.005Z,29.89
2023-09-17T07:18:39.901Z,29.99
2023-09-17T07:19:39.822Z,30.12
2023-09-17T07:20:39.830Z,30.30
2023-09-17T07:21:39.803Z,30.47
2023-09-17T07:22:39.854Z,30.52
2023-09-17T07:23:39.793Z,30.53
2023-09-17T07:24:39.783Z,30.57
2023-09-17T07:25:39.783Z,30.65
2023-09-17T07:26:39.732Z,30.14
2023-09-17T07:27:39.746Z,30.07
2023-09-17T07:28:39.704Z,30.19
2023-09-17T07:29:39.779Z,30.40
2023-09-17T07:30:39.667Z,30.53
2023-09-17T07:31:39.761Z,30.46
2023-09-17T07:32:39.702Z,30.19
2023-09-17T07:33:39.666Z,29.96
2023-09-17T07:34:39.644Z,29.70
2023-09-17T07:35:39.710Z,29.55
2023-09-17T07:36:39.647Z,29.01
2023-09-17T07:37:50.569Z,28.75
2023-09-17T07:38:40.563Z,28.81
2023-09-17T07:39:39.640Z,29.19
2023-09-17T07:40:39.597Z,29.45
2023-09-17T07:41:39.627Z,29.59
2023-09-17T07:42:39.512Z,29.75
2023-09-17T07:43:39.600Z,29.92
2023-09-17T07:44:39.661Z,30.18
2023-09-17T07:45:39.498Z,30.29
2023-09-17T07:46:39.587Z,30.24
2023-09-17T07:47:39.504Z,29.87
2023-09-17T07:48:39.419Z,29.41
2023-09-17T07:49:39.537Z,29.26
2023-09-17T07:50:39.436Z,29.18
2023-09-17T07:51:39.482Z,29.10
2023-09-17T07:52:39.422Z,29.22
2023-09-17T07:53:39.419Z,29.38
2023-09-17T07:54:39.546Z,29.55
2023-09-17T07:55:39.407Z,29.79
2023-09-17T07:56:39.352Z,29.93
2023-09-17T07:57:39.391Z,29.97
2023-09-17T07:58:39.386Z,29.84
2023-09-17T07:59:39.442Z,29.97
2023-09-17T08:00:39.330Z,30.03
2023-09-17T08:01:39.533Z,29.99
2023-09-17T08:02:39.570Z,30.03
2023-09-17T08:03:39.348Z,30.26
2023-09-17T08:04:39.270Z,30.57
2023-09-17T08:05:39.281Z,30.80
2023-09-17T08:06:39.261Z,30.98
2023-09-17T08:07:39.376Z,31.08
2023-09-17T08:08:39.213Z,31.24
2023-09-17T08:09:39.203Z,31.39
2023-09-17T08:10:39.158Z,31.46
2023-09-17T08:11:39.243Z,31.54
2023-09-17T08:12:39.117Z,31.61
2023-09-17T08:13:39.220Z,31.65
2023-09-17T08:14:39.088Z,31.60
2023-09-17T08:15:39.086Z,31.61
2023-09-17T08:16:39.232Z,31.58
2023-09-17T08:17:39.172Z,31.65
2023-09-17T08:18:39.069Z,31.84
2023-09-17T08:19:39.129Z,31.96
2023-09-17T08:20:39.029Z,32.06
2023-09-17T08:21:39.054Z,32.21
2023-09-17T08:22:39.000Z,32.36
2023-09-17T08:23:39.091Z,32.49
2023-09-17T08:24:39.029Z,32.61
2023-09-17T08:25:39.086Z,32.71
2023-09-17T08:26:38.956Z,32.69
2023-09-17T08:27:39.017Z,32.71
2023-09-17T08:28:38.980Z,32.64
2023-09-17T08:29:39.005Z,32.66
2023-09-17T08:30:38.887Z,32.66
2023-09-17T08:31:38.984Z,32.37
2023-09-17T08:32:38.906Z,32.00
2023-09-17T08:33:39.004Z,31.79
2023-09-17T08:34:38.908Z,31.99
2023-09-17T08:35:38.876Z,32.21
2023-09-17T08:36:38.850Z,32.36
2023-09-17T08:37:38.822Z,32.69
2023-09-17T08:38:38.822Z,32.89
2023-09-17T08:39:38.774Z,33.04
2023-09-17T08:40:38.846Z,33.30
2023-09-17T08:41:38.796Z,33.53
2023-09-17T08:42:38.725Z,33.78
2023-09-17T08:43:38.852Z,33.76
2023-09-17T08:44:38.736Z,33.30
2023-09-17T08:45:38.721Z,32.66
2023-09-17T08:46:38.845Z,31.76
2023-09-17T08:47:38.781Z,31.87
2023-09-17T08:48:38.716Z,32.21
2023-09-17T08:49:38.674Z,32.48
2023-09-17T08:50:38.594Z,32.58
2023-09-17T08:51:38.762Z,32.64
2023-09-17T08:52:38.620Z,32.71
2023-09-17T08:53:38.673Z,32.67
2023-09-17T08:54:38.581Z,32.03
2023-09-17T08:55:38.561Z,31.95
2023-09-17T08:56:38.527Z,32.13
2023-09-17T08:57:38.576Z,31.92
2023-09-17T08:58:38.577Z,32.11
2023-09-17T08:59:38.544Z,32.32
2023-09-17T09:00:38.493Z,32.57
2023-09-17T09:01:38.561Z,32.76
2023-09-17T09:02:38.557Z,32.80
2023-09-17T09:03:38.609Z,32.92
2023-09-17T09:04:38.448Z,33.19
2023-09-17T09:05:38.505Z,33.13
2023-09-17T09:06:38.414Z,32.66
2023-09-17T09:07:38.439Z,32.62
2023-09-17T09:08:38.402Z,32.52
2023-09-17T09:09:38.411Z,32.66
2023-09-17T09:10:38.474Z,32.52
2023-09-17T09:11:38.394Z,32.43
2023-09-17T09:12:38.338Z,32.03
2023-09-17T09:13:38.450Z,32.21
2023-09-17T09:14:38.302Z,32.32
2023-09-17T09:15:38.335Z,32.37
2023-09-17T09:16:38.525Z,32.14
2023-09-17T09:17:38.367Z,32.40
2023-09-17T09:18:38.266Z,32.58
2023-09-17T09:19:38.275Z,32.58
2023-09-17T09:20:38.214Z,32.73
2023-09-17T09:21:38.195Z,32.93
2023-09-17T09:22:38.242Z,33.20
2023-09-17T09:23:38.254Z,33.06
2023-09-17T09:24:38.160Z,32.99
2023-09-17T09:25:38.222Z,32.98
2023-09-17T09:26:38.120Z,33.15
2023-09-17T09:27:38.188Z,33.15
2023-09-17T09:28:38.118Z,32.89
2023-09-17T09:29:38.240Z,32.95
2023-09-17T09:30:38.099Z,32.55
2023-09-17T09:31:38.173Z,32.36
2023-09-17T09:32:38.202Z,32.54
2023-09-17T09:33:38.138Z,32.40
2023-09-17T09:34:38.809Z,32.40
2023-09-17T09:35:38.123Z,32.25
2023-09-17T09:36:38.096Z,32.70
2023-09-17T09:37:38.102Z,33.13
2023-09-17T09:38:38.057Z,33.08
2023-09-17T09:39:38.065Z,33.20
2023-09-17T09:40:38.036Z,33.17
2023-09-17T09:41:38.044Z,33.22
2023-09-17T09:42:38.036Z,33.37
2023-09-17T09:43:37.946Z,33.41
2023-09-17T09:44:37.927Z,33.26
2023-09-17T09:45:37.963Z,32.93
2023-09-17T09:46:37.914Z,32.59
2023-09-17T09:47:37.965Z,32.58
2023-09-17T09:48:37.817Z,32.70
2023-09-17T09:49:37.855Z,32.80
2023-09-17T09:50:37.836Z,32.96
2023-09-17T09:51:45.361Z,33.22
2023-09-17T09:52:37.857Z,32.89
2023-09-17T09:53:37.813Z,33.27
2023-09-17T09:54:38.753Z,33.55
2023-09-17T09:55:37.791Z,33.57
2023-09-17T09:56:37.764Z,33.70
2023-09-17T09:57:39.501Z,33.95
2023-09-17T09:58:37.839Z,34.00
2023-09-17T09:59:37.757Z,34.11
2023-09-17T10:00:37.699Z,33.74
2023-09-17T10:01:37.877Z,33.58
2023-09-17T10:02:37.688Z,33.41
2023-09-17T10:03:37.666Z,33.07
2023-09-17T10:04:37.773Z,32.99
2023-09-17T10:05:37.639Z,32.98
2023-09-17T10:06:37.709Z,33.29
2023-09-17T10:07:37.665Z,33.37
2023-09-17T10:08:37.599Z,33.23
2023-09-17T10:09:37.637Z,33.07
2023-09-17T10:10:37.692Z,33.22
2023-09-17T10:11:37.555Z,33.55
2023-09-17T10:12:37.665Z,33.51
2023-09-17T10:13:37.593Z,33.65
2023-09-17T10:14:37.540Z,33.43
2023-09-17T10:15:37.780Z,33.33
2023-09-17T10:16:37.670Z,32.88
2023-09-17T10:17:37.548Z,32.71
2023-09-17T10:18:37.488Z,32.93
2023-09-17T10:19:37.538Z,32.98
2023-09-17T10:20:37.514Z,32.92
2023-09-17T10:21:37.438Z,33.06
2023-09-17T10:22:37.473Z,33.34
2023-09-17T10:23:37.395Z,33.83
2023-09-17T10:24:37.438Z,34.17
2023-09-17T10:25:37.488Z,34.45
2023-09-17T10:26:37.410Z,34.77
2023-09-17T10:27:37.357Z,35.13
2023-09-17T10:28:37.409Z,34.76
2023-09-17T10:29:37.457Z,34.11
2023-09-17T10:30:37.437Z,33.82
2023-09-17T10:31:37.375Z,34.16
2023-09-17T10:32:37.511Z,34.46
2023-09-17T10:33:37.282Z,34.58
2023-09-17T10:34:37.404Z,34.48
2023-09-17T10:35:37.262Z,34.79
2023-09-17T10:36:37.202Z,34.44
2023-09-17T10:37:37.238Z,34.45
2023-09-17T10:38:37.333Z,34.45
2023-09-17T10:39:37.236Z,34.32
2023-09-17T10:40:37.196Z,34.31
2023-09-17T10:41:37.185Z,34.04
2023-09-17T10:42:37.148Z,33.49
2023-09-17T10:43:37.266Z,33.70
2023-09-17T10:44:37.178Z,33.11
2023-09-17T10:45:37.130Z,33.04
2023-09-17T10:46:37.205Z,33.30
2023-09-17T10:47:37.202Z,33.83
2023-09-17T10:48:37.112Z,34.34
2023-09-17T10:49:37.072Z,34.53
2023-09-17T10:50:37.098Z,34.51
2023-09-17T10:51:37.061Z,34.20
2023-09-17T10:52:37.074Z,34.00
2023-09-17T10:53:37.065Z,34.11
2023-09-17T10:54:37.012Z,34.34
2023-09-17T10:55:36.996Z,34.50
2023-09-17T10:56:37.018Z,34.63
2023-09-17T10:57:36.939Z,34.92
2023-09-17T10:58:36.969Z,35.28
2023-09-17T10:59:36.950Z,34.94
2023-09-17T11:00:37.094Z,34.81
2023-09-17T11:01:36.926Z,33.95
2023-09-17T11:02:37.119Z,33.58
2023-09-17T11:03:36.899Z,33.94
2023-09-17T11:04:36.870Z,34.24
2023-09-17T11:05:36.851Z,34.51
2023-09-17T11:06:36.862Z,34.64
2023-09-17T11:07:37.099Z,33.87
2023-09-17T11:08:36.856Z,33.57
2023-09-17T11:09:36.830Z,33.45
2023-09-17T11:10:36.858Z,33.71
2023-09-17T11:11:36.824Z,33.97
2023-09-17T11:12:36.777Z,33.95
2023-09-17T11:13:36.824Z,33.82
2023-09-17T11:14:36.751Z,33.86
2023-09-17T11:15:36.753Z,34.11
2023-09-17T11:16:37.498Z,34.56
2023-09-17T11:17:36.784Z,34.46
2023-09-17T11:18:36.711Z,34.61
2023-09-17T11:19:36.786Z,34.34
2023-09-17T11:20:36.709Z,34.31
2023-09-17T11:21:36.700Z,34.13
2023-09-17T11:22:36.637Z,33.73
2023-09-17T11:23:36.673Z,33.64
2023-09-17T11:24:36.569Z,33.92
2023-09-17T11:25:36.713Z,34.23
2023-09-17T11:26:36.611Z,34.26
2023-09-17T11:27:36.618Z,34.58
2023-09-17T11:28:36.664Z,34.95
2023-09-17T11:29:36.537Z,35.11
2023-09-17T11:30:36.576Z,35.06
2023-09-17T11:31:36.608Z,34.72
2023-09-17T11:32:36.478Z,34.81
2023-09-17T11:33:36.830Z,35.01
2023-09-17T11:34:36.717Z,35.11
2023-09-17T11:35:36.516Z,35.57
2023-09-17T11:36:36.500Z,35.85
2023-09-17T11:37:36.471Z,36.12
2023-09-17T11:38:36.601Z,36.21
2023-09-17T11:39:36.419Z,36.27
2023-09-17T11:40:36.509Z,36.01
2023-09-17T11:41:37.712Z,35.64
2023-09-17T11:42:36.360Z,35.36
2023-09-17T11:43:36.534Z,35.42
2023-09-17T11:44:36.501Z,35.42
2023-09-17T11:45:36.369Z,35.02
2023-09-17T11:46:36.457Z,34.95
2023-09-17T11:47:36.307Z,35.28
2023-09-17T11:48:36.356Z,35.45
2023-09-17T11:49:36.291Z,35.36
2023-09-17T11:50:36.277Z,34.80
2023-09-17T11:51:36.288Z,34.57
2023-09-17T11:52:36.303Z,34.41
2023-09-17T11:53:36.957Z,34.05
2023-09-17T11:54:36.346Z,33.68
2023-09-17T11:55:36.253Z,33.71
2023-09-17T11:56:36.320Z,33.64
2023-09-17T11:57:36.230Z,33.74
2023-09-17T11:58:36.185Z,33.70
2023-09-17T11:59:36.156Z,33.97
2023-09-17T12:00:36.229Z,34.35
2023-09-17T12:01:36.320Z,34.53
2023-09-17T12:02:36.360Z,35.07
2023-09-17T12:03:36.162Z,35.45
2023-09-17T12:04:36.256Z,35.85
2023-09-17T12:05:36.092Z,35.62
2023-09-17T12:06:36.080Z,35.50
2023-09-17T12:07:42.379Z,35.77
2023-09-17T12:08:37.213Z,35.82
2023-09-17T12:09:36.053Z,35.69
2023-09-17T12:10:36.042Z,35.45
2023-09-17T12:11:36.002Z,35.26
2023-09-17T12:12:59.920Z,35.37
2023-09-17T12:13:37.038Z,35.54
2023-09-17T12:14:35.988Z,35.93
2023-09-17T12:15:36.028Z,36.31
2023-09-17T12:16:36.145Z,36.51
2023-09-17T12:17:43.825Z,36.75
2023-09-17T12:18:36.977Z,36.87
2023-09-17T12:19:35.991Z,37.01
2023-09-17T12:20:36.007Z,36.83
2023-09-17T12:21:35.847Z,36.63
2023-09-17T12:22:35.919Z,36.77
2023-09-17T12:23:35.843Z,37.32
2023-09-17T12:24:35.974Z,37.20
2023-09-17T12:25:35.803Z,36.49
2023-09-17T12:26:35.927Z,36.52
2023-09-17T12:27:35.783Z,36.92
2023-09-17T12:28:35.857Z,37.12
2023-09-17T12:29:35.743Z,37.54
2023-09-17T12:30:35.796Z,37.66
2023-09-17T12:31:35.726Z,36.29
2023-09-17T12:32:35.832Z,35.79
2023-09-17T12:33:35.798Z,35.97
2023-09-17T12:34:35.746Z,36.21
2023-09-17T12:35:35.764Z,36.04
2023-09-17T12:36:35.709Z,36.52
2023-09-17T12:37:35.721Z,37.10
2023-09-17T12:38:35.639Z,37.20
2023-09-17T12:39:35.654Z,37.07
2023-09-17T12:40:35.688Z,36.99
2023-09-17T12:41:40.880Z,36.86
2023-09-17T12:42:36.593Z,36.97
2023-09-17T12:43:35.587Z,37.20
2023-09-17T12:44:35.591Z,37.93
2023-09-17T12:45:35.541Z,38.79
2023-09-17T12:46:35.635Z,39.14
2023-09-17T12:47:35.530Z,39.54
2023-09-17T12:48:35.515Z,39.56
2023-09-17T12:49:35.565Z,39.70
2023-09-17T12:50:35.512Z,39.83
2023-09-17T12:51:35.446Z,39.92
2023-09-17T12:52:35.554Z,39.54
2023-09-17T12:53:35.416Z,39.62